Tarancon, Spain
Current Conditions -  °F | °C
As of 7:00 PM on Friday 24 Oct 2014 (Local Time) from LETO Reporting Station
Clear Clear  
Wind Chill: 77°   Ceiling: Unl
Heat Index: 78°   Visibility: 6mi
Dew Point: 46°   Wind: 7mph
Humidity: 34%   Direction: 30°NNE
Pressure: 30.09"   Gusts: NA
Location:  40.01°N, 3.01°W
Report Text: LETO 241700Z 03006KT CAVOK 25/08 Q1019 NOSIG
Loading
Personal Weather Stations






























Interactive Weather Map
Tropical Storm Tracking
New forecast layout! Learn more

10-Day Weather Forecast

Advertisements
Track Severe Weather on mobile